Unalaska, AK (99685)

4:39 PM AKDT on October 25, 2014 (GMT -0800)
Dutch Harbor | Change Station
CLOSE
Current Station
Airport
Location: Dutch Harbor,
Elevation: 13 ft
Nearby Weather Stations

Elev 13 ft 53.90 °N, 166.54 °W | Updated 32 minutes ago

Partly Cloudy
Partly Cloudy
45 °F
Feels Like 39 °F
N
10
Wind Variable Wind from North

Today
High -- | Low -- °F
--% Chance of Precip.
Yesterday
High -- | Low -- °F
Precip. -- in
9:54 AM 7:46 PM
Waxing Crescent, 5% visible
Pressure 29.96 in
Visibility 10.0 miles
Clouds Few 2500 ft
Windchill 39 °F
Dew Point 34 °F
Humidity 66%
Rainfall 0.00 in
Snow Depth Not available.
UV 2 out of 12
Pollen Not available.
Air Quality Not available.
Flu Activity Not available.
SPECI PADU 260007Z 01009KT 10SM FEW025 07/01 A2996 RMK AO2 CS

More Conditions Fewer Conditions

Pressure 29.96 in
Visibility 10.0 miles
Clouds Few 2500 ft
Windchill 39 °F
Dew Point 34 °F
Humidity 66%
Rainfall 0.00 in
Snow Depth Not available.
UV 2 out of 12
Pollen Not available.
Air Quality Not available.
Flu Activity Not available.
SPECI PADU 260007Z 01009KT 10SM FEW025 07/01 A2996 RMK AO2 CS

More Conditions Fewer Conditions

10-Day Weather Forecast

Almanac

Astronomy

Oct. 25, 2014 Rise Set
Actual Time 9:54 AM AKDT 7:46 PM AKDT
Civil Twilight 9:17 AM AKDT 8:23 PM AKDT
Nautical Twilight 8:36 AM AKDT 9:04 PM AKDT
Astronomical Twilight 7:55 AM AKDT 9:45 PM AKDT
Moon 11:58 AM AKDT (10/25) 9:05 PM AKDT (10/25)
Length of Visible Light 11h 05m
Length of Day
9h 52m
Tomorrow will be 4m 4s shorter.
Waxing Crescent, 5% of the Moon is Illuminated
Today
Waxing Crescent
Oct 30
First Quarter
Nov 6
Full
Nov 14
Last Quarter
Nov 22
New

Today's Extremes

State Highs State Lows

Community

WunderPhotos

Upload Photos

1,765,052 photos uploaded!

Nearby

Snow Depth

Station Depth Elevation
Mcneil Canyon 1 in 1320 ft
MF Bradley River 0 in 2300 ft
Rocky Point 3 in 500 ft
Cooper Lake 0 in 1200 ft
Grouse Creek Divide 0 in 700 ft

Earthquake Activity

City Distance Mag. Time & Date
No recent earthquake activity has been reported nearby.
Minimum magnitude displayed is 2.5.

Coastal Water Temperatures

Place Temperature
No Stations Reporting

Nearby Weather Stations